Terminal Aerodrome Forecast
Issued by NWS Cleveland, OH

Home | Current Version | Previous Version | Graphics & Text | Print | Product List | Glossary On
Versions: 1 2 3 4 5 6 7 8 9 10 11 12 13 14 15 16
000
FTUS41 KCLE 222300
TAFCAK
TAF
KCAK 222337Z 2300/2324 10008KT 6SM HZ SCT040 OVC150
     FM230800 14012KT 4SM BR VCSH SCT015 OVC025
      TEMPO 2309/2312 2SM -SHRA BR BKN008 OVC012
     FM231200 15010G18KT 2SM -SHRA BR OVC006=

USA.gov is the U.S. government's official web portal to all federal, state and local government web resources and services.